Time;durP1;ratioP1;P1;durP2;ratioP2;P2;SDS_P1;SDS_P2;PMS_P1;PMS_P2;Temp;Humidity;BMP_temperature;BMP_pressure;BME280_temperature;BME280_humidity;BME280_pressure;Samples;Min_cycle;Max_cycle;Signal;HPM_P1;HPM_P2
2022/08/07 00:01:50;;;;;;;15.25;3.58;;;16.30;79.50;;;;;;6334168;22;20004;-73
2022/08/07 00:04:17;;;;;;;12.30;2.63;;;16.30;79.90;;;;;;6333913;22;20354;-78
2022/08/07 00:06:43;;;;;;;7.47;1.92;;;16.30;80.20;;;;;;6334275;22;20103;-78
2022/08/07 00:09:10;;;;;;;10.98;3.40;;;16.30;80.30;;;;;;6332547;22;20209;-76
2022/08/07 00:11:36;;;;;;;5.38;2.78;;;16.30;80.40;;;;;;6334743;22;20003;-73
2022/08/07 00:14:03;;;;;;;7.65;2.30;;;16.30;80.50;;;;;;6333130;22;20026;-78
2022/08/07 00:16:29;;;;;;;5.68;2.45;;;16.30;80.60;;;;;;6334503;22;20013;-72
2022/08/07 00:18:56;;;;;;;16.92;2.08;;;16.20;80.60;;;;;;6334011;22;19995;-75
2022/08/07 00:21:22;;;;;;;9.05;2.53;;;16.20;80.70;;;;;;6333765;22;20003;-77
2022/08/07 00:23:49;;;;;;;12.23;1.98;;;16.20;80.80;;;;;;6334088;22;20003;-78
2022/08/07 00:26:16;;;;;;;20.77;3.35;;;16.20;80.80;;;;;;6332568;22;20007;-79
2022/08/07 00:28:43;;;;;;;12.55;2.58;;;16.20;80.90;;;;;;6334442;22;20312;-77
2022/08/07 00:31:11;;;;;;;13.00;2.80;;;16.20;80.70;;;;;;6333176;22;20404;-74
2022/08/07 00:33:39;;;;;;;7.95;2.20;;;16.20;80.70;;;;;;6333911;22;20721;-78
2022/08/07 00:36:07;;;;;;;12.15;2.13;;;16.20;80.70;;;;;;6333020;22;19995;-72
2022/08/07 00:38:35;;;;;;;6.60;2.30;;;16.20;80.90;;;;;;6333433;22;20003;-77
2022/08/07 00:41:03;;;;;;;7.28;1.95;;;16.20;80.90;;;;;;6334018;22;19999;-79
2022/08/07 00:43:30;;;;;;;9.32;2.63;;;16.20;81.00;;;;;;6333145;22;20310;-77
2022/08/07 00:45:57;;;;;;;8.45;2.42;;;16.10;80.90;;;;;;6334777;22;20014;-74
2022/08/07 00:48:24;;;;;;;12.20;3.80;;;16.10;80.80;;;;;;6332211;22;20060;-76
2022/08/07 00:50:51;;;;;;;10.05;3.00;;;16.20;80.90;;;;;;6334334;22;19998;-78
2022/08/07 00:53:19;;;;;;;14.35;3.83;;;16.10;80.90;;;;;;6333051;22;20125;-74
2022/08/07 00:55:45;;;;;;;6.20;2.60;;;16.10;80.90;;;;;;6334441;22;20034;-79
2022/08/07 00:58:12;;;;;;;6.25;2.80;;;16.10;80.90;;;;;;6333461;22;20019;-78
2022/08/07 01:00:38;;;;;;;11.38;4.05;;;16.10;80.90;;;;;;6332034;22;20090;-73
2022/08/07 01:03:05;;;;;;;15.77;5.65;;;16.10;81.00;;;;;;6334627;22;19998;-77
2022/08/07 01:05:32;;;;;;;8.48;3.58;;;16.10;81.20;;;;;;6332178;22;20102;-79
2022/08/07 01:07:58;;;;;;;9.43;3.20;;;16.10;81.30;;;;;;6333610;22;20352;-71
2022/08/07 01:10:25;;;;;;;26.25;19.35;;;16.10;81.40;;;;;;6332631;22;19999;-77
2022/08/07 01:12:52;;;;;;;17.63;12.65;;;16.10;81.50;;;;;;6334070;22;20002;-76
2022/08/07 01:15:18;;;;;;;10.80;6.47;;;16.10;81.20;;;;;;6333868;22;19999;-72
2022/08/07 01:17:45;;;;;;;10.68;5.30;;;16.10;81.00;;;;;;6332990;22;20005;-76
2022/08/07 01:20:15;;;;;;;8.52;3.58;;;16.10;80.70;;;;;;6334282;22;20337;-77
2022/08/07 01:22:41;;;;;;;7.00;4.38;;;16.00;80.40;;;;;;6332314;22;20002;-72
2022/08/07 01:25:10;;;;;;;7.85;3.10;;;16.10;80.40;;;;;;6333993;22;19995;-78
2022/08/07 01:27:36;;;;;;;9.77;3.03;;;16.10;80.40;;;;;;6332377;22;20007;-75
2022/08/07 01:30:03;;;;;;;12.07;4.03;;;16.00;80.40;;;;;;6334339;22;20036;-78
2022/08/07 01:32:30;;;;;;;7.47;4.05;;;16.00;80.40;;;;;;6332413;22;19995;-77
2022/08/07 01:34:57;;;;;;;6.50;2.45;;;16.00;80.40;;;;;;6335184;22;20010;-78
2022/08/07 01:37:23;;;;;;;11.02;3.33;;;16.00;80.40;;;;;;6335242;22;19994;-78
2022/08/07 01:39:50;;;;;;;10.80;3.80;;;16.00;81.10;;;;;;6334348;22;19995;-78
2022/08/07 01:42:17;;;;;;;8.77;2.88;;;16.00;80.50;;;;;;6335213;22;20381;-79
2022/08/07 01:44:44;;;;;;;11.98;3.28;;;16.00;80.50;;;;;;6334136;22;20082;-77
2022/08/07 01:47:10;;;;;;;8.18;3.28;;;16.00;80.60;;;;;;6307553;22;20018;-77
2022/08/07 01:49:37;;;;;;;9.30;2.53;;;16.00;80.50;;;;;;6334123;22;20022;-77
2022/08/07 01:52:07;;;;;;;6.30;2.58;;;16.00;80.50;;;;;;6334626;22;20010;-78
2022/08/07 01:54:38;;;;;;;7.53;2.25;;;16.00;80.60;;;;;;6335427;22;20045;-75
2022/08/07 01:57:31;;;;;;;7.32;2.55;;;16.00;80.60;;;;;;6334034;22;20112;-78
2022/08/07 02:00:04;;;;;;;7.32;2.50;;;16.00;80.60;;;;;;6307459;22;20369;-76
2022/08/07 02:02:44;;;;;;;21.95;10.77;;;16.00;80.50;;;;;;6333616;22;20418;-79
2022/08/07 02:05:37;;;;;;;16.65;12.30;;;15.90;80.60;;;;;;6335133;22;20057;-77
2022/08/07 02:08:11;;;;;;;10.25;6.03;;;16.00;81.00;;;;;;6335157;22;20094;-78
2022/08/07 02:10:40;;;;;;;10.15;3.75;;;15.90;80.80;;;;;;6333626;22;20010;-75
2022/08/07 02:13:08;;;;;;;6.55;2.67;;;15.90;80.80;;;;;;6334909;22;20511;-76
2022/08/07 02:15:36;;;;;;;6.32;2.72;;;15.90;80.90;;;;;;6334025;22;20442;-75
2022/08/07 02:18:03;;;;;;;7.18;2.78;;;16.00;80.90;;;;;;6334851;22;19999;-74
2022/08/07 02:20:32;;;;;;;6.18;2.63;;;15.90;80.90;;;;;;6333789;22;20003;-77
2022/08/07 02:23:04;;;;;;;14.73;3.63;;;15.90;81.00;;;;;;6334008;22;20421;-76
2022/08/07 02:25:33;;;;;;;10.68;2.25;;;15.90;81.00;;;;;;6335534;22;20295;-73
2022/08/07 02:28:01;;;;;;;6.03;2.50;;;15.90;81.10;;;;;;6333693;22;19999;-76
2022/08/07 02:30:30;;;;;;;6.85;3.15;;;15.90;81.20;;;;;;6306910;22;20376;-75
2022/08/07 02:32:58;;;;;;;11.77;2.58;;;15.90;81.20;;;;;;6333830;22;20037;-78
2022/08/07 02:35:26;;;;;;;5.13;2.38;;;15.90;81.20;;;;;;6334587;22;20003;-75
2022/08/07 02:37:55;;;;;;;10.90;2.03;;;15.90;81.30;;;;;;6334532;22;20041;-77
2022/08/07 02:40:22;;;;;;;21.98;3.92;;;15.90;81.50;;;;;;6334243;22;20029;-76
2022/08/07 02:42:49;;;;;;;26.40;3.65;;;15.90;81.60;;;;;;6335363;22;20453;-73
2022/08/07 02:45:19;;;;;;;10.55;2.83;;;15.90;82.30;;;;;;6333338;22;20482;-73
2022/08/07 02:47:46;;;;;;;7.32;2.40;;;15.90;82.80;;;;;;6307015;22;20345;-74
2022/08/07 02:50:13;;;;;;;10.65;3.28;;;15.90;82.50;;;;;;6333566;22;20383;-72
2022/08/07 02:52:51;;;;;;;7.93;2.67;;;15.90;82.00;;;;;;6334917;22;20024;-76
2022/08/07 02:55:21;;;;;;;22.65;4.30;;;15.80;81.60;;;;;;6334499;22;20006;-77
2022/08/07 02:57:50;;;;;;;14.23;5.70;;;15.90;82.00;;;;;;6334475;22;19995;-76
2022/08/07 03:00:17;;;;;;;11.90;4.55;;;15.80;82.30;;;;;;6334765;22;20022;-73
2022/08/07 03:02:47;;;;;;;39.03;5.80;;;15.90;82.60;;;;;;6333817;22;20002;-77
2022/08/07 03:05:15;;;;;;;12.65;3.67;;;15.80;82.90;;;;;;6334584;22;20014;-77
2022/08/07 03:07:43;;;;;;;11.73;3.47;;;15.80;83.00;;;;;;6305732;22;20015;-74
2022/08/07 03:10:10;;;;;;;9.52;3.17;;;15.90;82.80;;;;;;6334547;22;19999;-76
2022/08/07 03:12:37;;;;;;;12.00;3.28;;;15.80;82.30;;;;;;6334192;22;19998;-77
2022/08/07 03:15:06;;;;;;;8.70;3.40;;;15.80;82.10;;;;;;6333325;22;20074;-71
2022/08/07 03:17:36;;;;;;;6.65;2.47;;;15.80;82.10;;;;;;6334565;22;19995;-71
2022/08/07 03:20:03;;;;;;;5.97;3.28;;;15.80;81.80;;;;;;6333549;22;20427;-74
2022/08/07 03:22:30;;;;;;;11.07;2.92;;;15.80;81.80;;;;;;6334251;22;20006;-75
2022/08/07 03:24:59;;;;;;;6.68;4.03;;;15.80;81.80;;;;;;6333380;22;20007;-76
2022/08/07 03:27:27;;;;;;;7.28;4.50;;;15.80;81.80;;;;;;6334070;22;20010;-72
2022/08/07 03:29:55;;;;;;;9.15;4.60;;;15.80;81.70;;;;;;6334052;22;19999;-72
2022/08/07 03:32:26;;;;;;;10.02;2.55;;;15.80;81.70;;;;;;6333603;22;20556;-77
2022/08/07 03:34:56;;;;;;;5.20;1.92;;;15.70;81.70;;;;;;6334468;22;20101;-77
2022/08/07 03:37:24;;;;;;;7.47;2.30;;;15.70;81.80;;;;;;6332546;22;20041;-75
2022/08/07 03:39:51;;;;;;;8.65;2.38;;;15.70;81.70;;;;;;6334376;22;20030;-73
2022/08/07 03:42:19;;;;;;;11.68;2.90;;;15.70;81.70;;;;;;6333184;22;20006;-73
2022/08/07 03:44:46;;;;;;;7.68;2.75;;;15.70;81.70;;;;;;6334299;22;20003;-76
2022/08/07 03:47:13;;;;;;;7.68;2.83;;;15.70;81.80;;;;;;6333585;22;20049;-77
2022/08/07 03:49:40;;;;;;;4.80;2.42;;;15.70;81.80;;;;;;6332970;22;20078;-79
2022/08/07 03:52:08;;;;;;;7.32;2.38;;;15.70;81.80;;;;;;6334522;22;20055;-79
2022/08/07 03:54:34;;;;;;;6.90;1.83;;;15.70;81.90;;;;;;6331370;22;20006;-78
2022/08/07 03:57:03;;;;;;;3.00;2.03;;;15.70;81.90;;;;;;6334054;22;19995;-76
2022/08/07 03:59:31;;;;;;;8.75;3.00;;;15.70;82.00;;;;;;6333112;22;20026;-73
2022/08/07 04:01:58;;;;;;;4.97;2.13;;;15.70;82.00;;;;;;6334025;22;19999;-77
2022/08/07 04:04:25;;;;;;;3.13;1.50;;;15.70;82.00;;;;;;6333623;22;20017;-76
2022/08/07 04:06:52;;;;;;;7.78;2.78;;;15.70;82.50;;;;;;6333198;22;20010;-72
2022/08/07 04:09:20;;;;;;;9.57;2.88;;;15.70;81.90;;;;;;6334424;22;20014;-78
2022/08/07 04:11:48;;;;;;;5.95;3.05;;;15.70;81.90;;;;;;6332915;22;19995;-79
2022/08/07 04:14:15;;;;;;;5.82;3.13;;;15.70;82.00;;;;;;6334031;22;20066;-77
2022/08/07 04:16:42;;;;;;;6.28;2.17;;;15.70;82.00;;;;;;6333009;22;20429;-77
2022/08/07 04:19:09;;;;;;;19.20;5.07;;;15.70;82.10;;;;;;6333581;22;19999;-76
2022/08/07 04:21:36;;;;;;;9.10;3.58;;;15.70;82.50;;;;;;6333612;22;20311;-73
2022/08/07 04:24:05;;;;;;;7.50;2.95;;;15.80;82.80;;;;;;6333590;22;20477;-78
2022/08/07 04:26:31;;;;;;;17.42;3.75;;;15.80;82.80;;;;;;6334101;22;20430;-72
2022/08/07 04:28:57;;;;;;;15.18;3.88;;;15.70;83.00;;;;;;6332912;22;20078;-78
2022/08/07 04:31:24;;;;;;;11.73;3.30;;;15.70;82.60;;;;;;6333673;22;20493;-80
2022/08/07 04:33:51;;;;;;;6.75;2.75;;;15.70;82.30;;;;;;6333070;22;20104;-80
2022/08/07 04:36:18;;;;;;;9.52;3.00;;;15.70;82.10;;;;;;6333427;22;20002;-75
2022/08/07 04:38:44;;;;;;;5.90;3.45;;;15.60;81.90;;;;;;6333147;22;20002;-79
2022/08/07 04:41:11;;;;;;;6.93;2.50;;;15.60;81.80;;;;;;6334228;22;20049;-75
2022/08/07 04:43:41;;;;;;;12.10;3.70;;;15.60;81.60;;;;;;6333229;22;20037;-78
2022/08/07 04:46:18;;;;;;;10.88;3.10;;;15.60;81.50;;;;;;6332461;22;20007;-77
2022/08/07 04:49:07;;;;;;;7.60;3.65;;;15.60;81.30;;;;;;6334551;22;20009;-76
2022/08/07 04:51:41;;;;;;;21.08;7.35;;;15.50;81.10;;;;;;6332664;22;19995;-78
2022/08/07 04:54:12;;;;;;;15.73;7.15;;;15.50;81.20;;;;;;6333797;22;20003;-77
2022/08/07 04:56:49;;;;;;;10.70;5.45;;;15.50;81.30;;;;;;6333882;22;20045;-77
2022/08/07 04:59:46;;;;;;;8.60;4.28;;;15.50;81.10;;;;;;6332516;22;20007;-74
2022/08/07 05:03:14;;;;;;;6.78;3.42;;;15.50;81.10;;;;;;6334325;22;20030;-74
2022/08/07 05:05:51;;;;;;;4.35;2.78;;;15.50;80.90;;;;;;6144913;23;20021;-78
2022/08/07 05:08:40;;;;;;;16.58;4.55;;;15.40;80.80;;;;;;6272691;22;20075;-82
2022/08/07 05:11:31;;;;;;;10.00;5.07;;;15.40;80.70;;;;;;6273847;22;20004;-77
2022/08/07 05:14:11;;;;;;;9.93;3.88;;;15.40;81.00;;;;;;6273003;22;20003;-78
2022/08/07 05:16:40;;;;;;;8.48;2.72;;;15.40;81.00;;;;;;6272120;22;20003;-74
2022/08/07 05:19:15;;;;;;;9.43;4.05;;;15.40;80.90;;;;;;6271766;22;20042;-77
2022/08/07 05:21:51;;;;;;;4.63;2.55;;;15.40;80.80;;;;;;6272460;22;20450;-78
2022/08/07 05:24:20;;;;;;;11.05;3.15;;;15.40;80.70;;;;;;6273284;22;20057;-74
2022/08/07 05:26:49;;;;;;;7.07;3.10;;;15.40;80.60;;;;;;6273451;22;20012;-78
2022/08/07 05:29:18;;;;;;;11.02;2.97;;;15.40;80.50;;;;;;6271292;22;20087;-74
2022/08/07 05:31:47;;;;;;;10.85;2.72;;;15.40;80.60;;;;;;6273725;22;20000;-75
2022/08/07 05:34:16;;;;;;;4.85;2.80;;;15.40;80.50;;;;;;6273218;22;20003;-77
2022/08/07 05:36:53;;;;;;;10.50;2.40;;;15.40;80.60;;;;;;6273483;22;20075;-75
2022/08/07 05:39:21;;;;;;;8.88;4.07;;;15.40;80.60;;;;;;6272080;22;20006;-81
2022/08/07 05:41:49;;;;;;;4.55;2.95;;;15.30;80.50;;;;;;6272521;22;20362;-74
2022/08/07 05:44:19;;;;;;;6.05;2.75;;;15.30;80.60;;;;;;6273441;22;20007;-77
2022/08/07 05:46:50;;;;;;;12.10;3.08;;;15.30;80.70;;;;;;6272009;22;20320;-75
2022/08/07 05:49:19;;;;;;;6.28;2.88;;;15.30;80.90;;;;;;6272074;22;20544;-75
2022/08/07 05:51:46;;;;;;;11.10;3.55;;;15.30;81.10;;;;;;6272040;22;20075;-84
2022/08/07 05:54:15;;;;;;;11.55;3.78;;;15.30;81.70;;;;;;6273524;22;20342;-82
2022/08/07 05:56:42;;;;;;;6.55;2.45;;;15.30;82.30;;;;;;6273959;22;20759;-83
2022/08/07 05:59:17;;;;;;;10.55;2.85;;;15.30;82.00;;;;;;6274605;22;20615;-78
2022/08/07 06:01:45;;;;;;;5.75;2.70;;;15.30;81.90;;;;;;6274263;22;20424;-85
2022/08/07 06:04:15;;;;;;;10.95;5.32;;;15.30;81.90;;;;;;6282207;22;20038;-84
2022/08/07 06:06:43;;;;;;;14.27;11.20;;;15.30;82.00;;;;;;6305078;22;20019;-74
2022/08/07 06:09:11;;;;;;;10.00;7.20;;;15.20;82.00;;;;;;6301448;22;20039;-74
2022/08/07 06:11:38;;;;;;;11.10;5.97;;;15.30;82.20;;;;;;6305277;22;20017;-82
2022/08/07 06:14:05;;;;;;;6.32;3.92;;;15.30;82.40;;;;;;6304477;22;20019;-86
2022/08/07 06:16:37;;;;;;;6.00;3.08;;;15.30;82.40;;;;;;6304415;22;20032;-82
2022/08/07 06:19:04;;;;;;;4.43;2.65;;;15.20;82.30;;;;;;6304969;22;20438;-83
2022/08/07 06:21:31;;;;;;;6.65;2.80;;;15.30;82.30;;;;;;6302827;22;20003;-79
2022/08/07 06:23:58;;;;;;;4.78;1.75;;;15.30;82.30;;;;;;6303903;22;20438;-80
2022/08/07 06:26:25;;;;;;;8.77;4.57;;;15.30;82.40;;;;;;6302320;22;20439;-82
2022/08/07 06:28:54;;;;;;;7.70;2.78;;;15.30;82.40;;;;;;6304109;22;19995;-84
2022/08/07 06:31:21;;;;;;;5.13;2.30;;;15.30;82.40;;;;;;6303327;22;20563;-86
2022/08/07 06:33:48;;;;;;;10.13;3.53;;;15.30;82.40;;;;;;6304570;22;20003;-79
2022/08/07 06:36:14;;;;;;;7.05;2.55;;;15.30;82.50;;;;;;6304024;22;20525;-84
2022/08/07 06:38:43;;;;;;;3.90;2.25;;;15.30;82.60;;;;;;6303115;22;19999;-80
2022/08/07 06:41:20;;;;;;;9.35;2.80;;;15.30;82.80;;;;;;6304651;22;19999;-76
2022/08/07 06:43:48;;;;;;;5.18;2.00;;;15.30;83.00;;;;;;6302549;22;19999;-79
2022/08/07 06:46:15;;;;;;;8.93;2.38;;;15.30;83.10;;;;;;6303350;22;20049;-81
2022/08/07 06:48:42;;;;;;;4.25;1.73;;;15.30;83.10;;;;;;6303457;22;19999;-79
2022/08/07 06:51:12;;;;;;;5.90;2.13;;;15.40;83.30;;;;;;6301789;22;20007;-84
2022/08/07 06:53:41;;;;;;;10.82;2.35;;;15.40;83.40;;;;;;6303481;22;19999;-83
2022/08/07 06:56:09;;;;;;;9.00;4.60;;;15.40;83.50;;;;;;6303353;22;19995;-79
2022/08/07 06:58:38;;;;;;;18.17;13.73;;;15.40;83.80;;;;;;6303614;22;20027;-85
2022/08/07 07:01:11;;;;;;;29.75;13.88;;;15.40;84.20;;;;;;6302839;22;20041;-73
2022/08/07 07:03:40;;;;;;;16.75;10.65;;;15.50;84.60;;;;;;6307780;22;20078;-75
2022/08/07 07:06:09;;;;;;;30.35;8.35;;;15.50;84.90;;;;;;6334373;22;20368;-77
2022/08/07 07:08:36;;;;;;;10.95;5.93;;;15.50;85.00;;;;;;6334255;22;20463;-73
2022/08/07 07:11:06;;;;;;;9.10;5.72;;;15.60;85.00;;;;;;6334068;22;20441;-76
2022/08/07 07:13:38;;;;;;;10.27;4.75;;;15.60;84.80;;;;;;6332981;22;20051;-73
2022/08/07 07:16:13;;;;;;;8.00;4.63;;;15.60;84.60;;;;;;6335046;22;20058;-74
2022/08/07 07:18:58;;;;;;;13.80;4.90;;;15.60;84.40;;;;;;6333451;22;19995;-75
2022/08/07 07:21:29;;;;;;;11.83;3.93;;;15.60;84.30;;;;;;6334348;22;19998;-73
2022/08/07 07:23:56;;;;;;;15.68;6.95;;;15.70;84.40;;;;;;6334579;22;20009;-75
2022/08/07 07:26:25;;;;;;;27.33;21.55;;;15.70;84.70;;;;;;6332793;22;20015;-74
2022/08/07 07:28:54;;;;;;;46.50;26.33;;;15.70;84.60;;;;;;6333871;22;19999;-74
2022/08/07 07:31:31;;;;;;;27.02;18.73;;;15.70;84.60;;;;;;6333001;22;20006;-72
2022/08/07 07:34:03;;;;;;;24.75;14.15;;;15.70;84.70;;;;;;6335181;22;20063;-74
2022/08/07 07:36:32;;;;;;;32.17;19.50;;;15.70;84.60;;;;;;6332975;22;20322;-69
2022/08/07 07:39:01;;;;;;;28.70;19.85;;;15.70;84.60;;;;;;6333694;22;20002;-74
2022/08/07 07:41:29;;;;;;;36.30;22.80;;;15.80;85.10;;;;;;6334322;22;20006;-75
2022/08/07 07:43:57;;;;;;;24.85;18.52;;;15.80;85.50;;;;;;6333868;22;20060;-74
2022/08/07 07:46:25;;;;;;;21.17;14.82;;;15.90;85.80;;;;;;6333844;22;20010;-78
2022/08/07 07:48:53;;;;;;;15.93;12.23;;;15.90;86.00;;;;;;6332618;22;20006;-70
2022/08/07 07:51:21;;;;;;;17.95;10.55;;;15.90;86.10;;;;;;6334876;22;20006;-81
2022/08/07 07:53:49;;;;;;;8.27;7.10;;;16.00;86.00;;;;;;6333729;22;20417;-79
2022/08/07 07:56:18;;;;;;;7.75;6.57;;;16.00;85.80;;;;;;6334018;22;20014;-76
2022/08/07 07:58:46;;;;;;;6.20;5.60;;;16.10;85.60;;;;;;6334899;22;20121;-77
2022/08/07 08:01:14;;;;;;;15.32;8.15;;;16.10;85.30;;;;;;6333341;22;19991;-73
2022/08/07 08:03:42;;;;;;;14.90;7.30;;;16.10;84.80;;;;;;6334469;22;20011;-77
2022/08/07 08:06:09;;;;;;;22.13;15.85;;;16.10;84.40;;;;;;6332905;22;20011;-80
2022/08/07 08:08:37;;;;;;;15.32;9.75;;;16.20;84.30;;;;;;6334489;22;20013;-75
2022/08/07 08:11:07;;;;;;;10.23;8.27;;;16.30;84.00;;;;;;6334293;22;19999;-77
2022/08/07 08:13:38;;;;;;;12.15;7.32;;;16.30;83.90;;;;;;6333945;22;20018;-73
2022/08/07 08:16:06;;;;;;;8.60;5.18;;;16.40;83.90;;;;;;6334524;22;20014;-79
2022/08/07 08:18:35;;;;;;;10.13;5.60;;;16.40;83.80;;;;;;6332581;22;20002;-79
2022/08/07 08:21:02;;;;;;;7.00;5.38;;;16.50;83.60;;;;;;6332777;22;20152;-72
2022/08/07 08:27:32;;;;;;;4.45;3.53;;;16.60;83.20;;;;;;6331791;22;20350;-76
2022/08/07 08:30:41;;;;;;;4.32;2.92;;;16.70;82.90;;;;;;6332379;22;20009;-76
2022/08/07 08:33:48;;;;;;;4.47;2.67;;;16.70;82.40;;;;;;6333696;22;20568;-73
2022/08/07 08:36:54;;;;;;;6.30;2.42;;;16.80;82.10;;;;;;6332288;22;20532;-74
2022/08/07 08:40:00;;;;;;;3.47;1.85;;;16.80;82.00;;;;;;6335119;22;20064;-75
2022/08/07 08:42:54;;;;;;;5.55;3.35;;;16.80;80.50;;;;;;6335375;22;20009;-72
2022/08/07 08:45:32;;;;;;;13.15;4.45;;;16.90;79.90;;;;;;6334799;22;20005;-75
2022/08/07 08:48:27;;;;;;;11.60;4.30;;;16.90;79.70;;;;;;6335962;22;20505;-69
2022/08/07 08:51:39;;;;;;;18.38;5.40;;;16.90;80.40;;;;;;6332185;22;20003;-75
2022/08/07 08:54:46;;;;;;;16.05;5.35;;;17.00;80.90;;;;;;6319525;22;20006;-72
2022/08/07 08:57:32;;;;;;;;;;;17.00;81.20;;;;;;6337662;22;20006;-68
2022/08/07 09:00:38;;;;;;;14.82;5.28;;;17.10;81.40;;;;;;6308168;22;20242;-73
2022/08/07 09:03:49;;;;;;;13.98;4.82;;;17.10;81.70;;;;;;6335362;22;20482;-73
2022/08/07 09:06:37;;;;;;;15.55;5.65;;;17.10;81.90;;;;;;6333325;22;20015;-68
2022/08/07 09:09:47;;;;;;;15.32;7.78;;;17.20;82.00;;;;;;6335625;22;20003;-72
2022/08/07 09:12:56;;;;;;;16.10;7.32;;;17.20;82.00;;;;;;6335912;22;20073;-73
2022/08/07 09:15:58;;;;;;;19.38;6.30;;;17.30;82.30;;;;;;6333912;22;20026;-74
2022/08/07 09:18:59;;;;;;;12.55;5.25;;;17.30;82.40;;;;;;6334386;22;20018;-70
2022/08/07 09:21:35;;;;;;;16.85;5.70;;;17.30;82.50;;;;;;6327979;22;20003;-73
2022/08/07 09:24:26;;;;;;;29.08;6.38;;;17.40;82.60;;;;;;6334458;22;20029;-74
2022/08/07 09:27:49;;;;;;;16.13;6.53;;;17.40;82.70;;;;;;6335510;22;20017;-73
2022/08/07 09:30:58;;;;;;;23.40;5.57;;;17.50;82.50;;;;;;6333613;22;20081;-71
2022/08/07 09:34:20;;;;;;;11.07;3.95;;;17.50;82.50;;;;;;6318380;22;20031;-75
2022/08/07 09:37:44;;;;;;;9.05;4.15;;;17.50;82.30;;;;;;6332646;22;20062;-74
2022/08/07 09:40:42;;;;;;;8.00;3.25;;;17.60;82.10;;;;;;6305869;22;20007;-72
2022/08/07 09:43:28;;;;;;;8.85;2.95;;;17.60;82.00;;;;;;6335838;22;20003;-75
2022/08/07 09:46:53;;;;;;;20.10;3.65;;;17.60;81.90;;;;;;6331334;22;20022;-75
2022/08/07 09:49:45;;;;;;;10.07;3.65;;;17.70;81.90;;;;;;6299284;22;20006;-70
2022/08/07 09:52:40;;;;;;;9.90;2.92;;;17.80;82.30;;;;;;6332869;22;19999;-72
2022/08/07 09:55:29;;;;;;;19.70;3.40;;;17.90;82.40;;;;;;6335084;22;20006;-73
2022/08/07 09:57:59;;;;;;;12.45;3.80;;;18.00;82.30;;;;;;6333983;22;20081;-70
2022/08/07 10:01:03;;;;;;;7.03;3.22;;;18.00;82.10;;;;;;6335490;22;19998;-76
2022/08/07 10:03:52;;;;;;;11.10;5.40;;;18.10;82.00;;;;;;6306384;22;20009;-77
2022/08/07 10:06:21;;;;;;;7.15;4.68;;;18.20;82.00;;;;;;6334311;22;20011;-77
2022/08/07 10:09:13;;;;;;;10.20;5.38;;;18.20;81.80;;;;;;6335849;22;19999;-74
2022/08/07 10:12:29;;;;;;;9.45;3.67;;;18.30;81.40;;;;;;6329969;22;20009;-79
2022/08/07 10:15:18;;;;;;;6.07;2.88;;;18.40;81.20;;;;;;6334240;22;20030;-77
2022/08/07 10:17:48;;;;;;;7.00;2.80;;;18.40;80.60;;;;;;6335009;22;20010;-78
2022/08/07 10:20:33;;;;;;;6.65;2.65;;;18.50;80.10;;;;;;6333157;22;20002;-77
2022/08/07 10:23:36;;;;;;;7.90;2.97;;;18.60;80.00;;;;;;6334940;22;20003;-73
2022/08/07 10:26:25;;;;;;;10.23;3.55;;;18.60;79.70;;;;;;6334743;22;20041;-76
2022/08/07 10:29:13;;;;;;;8.63;2.65;;;18.70;79.50;;;;;;6330769;22;20030;-78
2022/08/07 10:32:12;;;;;;;5.45;2.28;;;18.80;79.20;;;;;;6335095;22;20078;-75
2022/08/07 10:34:56;;;;;;;15.52;3.53;;;18.90;79.00;;;;;;6332712;22;20427;-71
2022/08/07 10:37:25;;;;;;;11.90;3.50;;;18.90;78.60;;;;;;6333993;22;20003;-72
2022/08/07 10:40:18;;;;;;;7.55;3.10;;;19.00;78.20;;;;;;6335599;22;20011;-70
2022/08/07 10:43:11;;;;;;;5.88;2.92;;;19.10;77.70;;;;;;6334289;22;20026;-75
2022/08/07 10:45:54;;;;;;;7.40;3.47;;;19.10;77.20;;;;;;6333996;22;20701;-75
2022/08/07 10:48:30;;;;;;;7.95;2.38;;;19.10;76.70;;;;;;6334614;22;20009;-74
2022/08/07 10:51:01;;;;;;;6.45;2.63;;;19.20;76.70;;;;;;6333697;22;20044;-72
2022/08/07 10:53:35;;;;;;;12.10;3.08;;;19.30;76.20;;;;;;6335285;22;20014;-76
2022/08/07 10:56:42;;;;;;;10.15;3.25;;;19.30;76.10;;;;;;6334371;22;20006;-76
2022/08/07 10:59:14;;;;;;;;;;;19.30;76.00;;;;;;6334718;22;20003;-71
2022/08/07 11:02:05;;;;;;;7.30;2.40;;;19.30;76.10;;;;;;6334821;22;20305;-74
2022/08/07 11:04:51;;;;;;;4.70;1.98;;;19.40;76.20;;;;;;6334313;22;20018;-75
2022/08/07 11:07:48;;;;;;;5.13;2.00;;;19.40;76.20;;;;;;6333902;22;20031;-70
2022/08/07 11:10:39;;;;;;;2.67;2.47;;;19.50;76.30;;;;;;6334933;22;20009;-70
2022/08/07 11:13:17;;;;;;;5.43;2.65;;;19.50;75.80;;;;;;6333095;22;20030;-77
2022/08/07 11:15:49;;;;;;;7.25;3.60;;;19.60;75.80;;;;;;6333941;22;20071;-74
2022/08/07 11:18:27;;;;;;;3.33;1.90;;;19.50;75.60;;;;;;6334690;22;19999;-74
2022/08/07 11:21:10;;;;;;;4.28;1.77;;;19.60;75.50;;;;;;6333710;22;20009;-75
2022/08/07 11:23:46;;;;;;;2.85;1.85;;;19.60;75.60;;;;;;6334641;22;20480;-77
2022/08/07 11:26:24;;;;;;;3.45;2.85;;;19.60;75.50;;;;;;6333733;22;20007;-74
2022/08/07 11:29:23;;;;;;;4.03;2.03;;;19.50;74.90;;;;;;6334318;22;19995;-76
2022/08/07 11:32:04;;;;;;;5.65;2.83;;;19.40;74.60;;;;;;6334375;22;20510;-76
2022/08/07 11:35:02;;;;;;;4.75;2.05;;;19.40;74.70;;;;;;6333096;22;20376;-78
2022/08/07 11:37:49;;;;;;;4.72;2.20;;;19.30;74.70;;;;;;6333574;22;20006;-75
2022/08/07 11:40:56;;;;;;;5.45;2.05;;;19.30;74.70;;;;;;6306539;22;20076;-71
2022/08/07 11:43:32;;;;;;;4.72;1.95;;;19.20;74.80;;;;;;6333178;22;20414;-78
2022/08/07 11:46:04;;;;;;;8.13;4.18;;;19.10;74.80;;;;;;6305778;22;20042;-70
2022/08/07 11:48:46;;;;;;;6.13;2.63;;;19.00;75.00;;;;;;6334594;22;19999;-70
2022/08/07 11:51:24;;;;;;;29.13;5.63;;;19.00;75.30;;;;;;6332984;22;20074;-75
2022/08/07 11:54:10;;;;;;;9.07;2.45;;;19.00;75.50;;;;;;6306428;22;20007;-71
2022/08/07 11:57:11;;;;;;;8.80;3.08;;;19.00;76.00;;;;;;6334222;22;20010;-77
2022/08/07 12:00:00;;;;;;;3.28;2.78;;;19.00;76.20;;;;;;6333672;22;20524;-77
2022/08/07 12:02:54;;;;;;;6.80;2.10;;;18.90;76.30;;;;;;6334253;22;20069;-73
2022/08/07 12:05:37;;;;;;;5.50;2.08;;;19.00;76.30;;;;;;6333403;22;20015;-73
2022/08/07 12:08:39;;;;;;;3.88;2.25;;;19.00;76.20;;;;;;6333515;22;20014;-77
2022/08/07 12:11:38;;;;;;;1.75;1.52;;;19.10;76.20;;;;;;6327084;22;20007;-71
2022/08/07 12:14:15;;;;;;;4.72;1.50;;;19.20;76.10;;;;;;6333156;22;20010;-78
2022/08/07 12:17:09;;;;;;;5.03;2.00;;;19.30;76.00;;;;;;6332784;22;19995;-71
2022/08/07 12:20:17;;;;;;;4.40;1.83;;;19.30;75.60;;;;;;6333986;22;20002;-70
2022/08/07 12:22:47;;;;;;;3.88;1.77;;;19.30;75.40;;;;;;6177621;23;20037;-70
2022/08/07 12:28:24;;;;;;;5.28;1.35;;;19.40;75.50;;;;;;6294137;22;20512;-76
2022/08/07 12:30:55;;;;;;;5.53;1.50;;;19.50;75.70;;;;;;6333063;22;20022;-77
2022/08/07 12:33:27;;;;;;;7.07;1.55;;;19.50;75.80;;;;;;6334213;22;20091;-72
2022/08/07 12:35:56;;;;;;;3.28;1.50;;;19.60;75.80;;;;;;6333854;22;20407;-77
2022/08/07 12:38:23;;;;;;;7.15;1.67;;;19.70;75.80;;;;;;6305379;22;20006;-76
2022/08/07 12:40:52;;;;;;;4.63;1.48;;;19.70;76.10;;;;;;6334318;22;19999;-74
2022/08/07 12:43:24;;;;;;;5.38;1.98;;;19.80;76.00;;;;;;6332453;22;20346;-73
2022/08/07 12:46:09;;;;;;;8.00;1.70;;;19.90;76.20;;;;;;6333968;22;20003;-74
2022/08/07 12:48:54;;;;;;;7.15;2.28;;;19.90;76.00;;;;;;6306044;22;20434;-75
2022/08/07 12:51:25;;;;;;;5.80;2.60;;;20.00;76.20;;;;;;6333371;22;19991;-73
2022/08/07 12:54:35;;;;;;;10.52;2.28;;;20.00;75.90;;;;;;6334818;22;20410;-77
2022/08/07 12:57:05;;;;;;;3.50;2.75;;;20.10;76.00;;;;;;6248419;22;20078;-75
2022/08/07 12:59:34;;;;;;;7.30;1.90;;;20.10;75.50;;;;;;6334049;22;20077;-70
2022/08/07 13:02:03;;;;;;;6.47;1.65;;;20.10;75.80;;;;;;6306488;22;20003;-70
2022/08/07 13:04:48;;;;;;;8.15;1.60;;;20.10;74.90;;;;;;6333473;22;20007;-74
2022/08/07 13:07:46;;;;;;;6.88;1.73;;;20.10;75.00;;;;;;6334510;22;20007;-74
2022/08/07 13:10:41;;;;;;;6.35;2.10;;;20.10;75.10;;;;;;6333367;22;20484;-78
2022/08/07 13:13:16;;;;;;;9.60;1.70;;;20.10;75.30;;;;;;6333195;22;19995;-70
2022/08/07 13:15:49;;;;;;;9.68;3.33;;;20.10;75.20;;;;;;6333810;22;20006;-77
2022/08/07 13:18:25;;;;;;;3.42;1.40;;;20.20;75.30;;;;;;6333385;22;19999;-78
2022/08/07 13:21:01;;;;;;;6.72;1.65;;;20.20;75.20;;;;;;6334573;22;20003;-73
2022/08/07 13:23:31;;;;;;;7.70;2.20;;;20.30;75.10;;;;;;6333306;22;20469;-72
2022/08/07 13:26:20;;;;;;;5.32;1.70;;;20.30;75.00;;;;;;6332931;22;20005;-75
2022/08/07 13:28:57;;;;;;;4.97;2.17;;;20.30;74.90;;;;;;6336697;22;20024;-72
2022/08/07 13:31:42;;;;;;;9.63;2.50;;;20.30;74.80;;;;;;6334108;22;20422;-77
2022/08/07 13:34:13;;;;;;;7.07;3.13;;;20.30;74.70;;;;;;6335587;22;20003;-75
2022/08/07 13:37:13;;;;;;;5.25;2.00;;;20.30;74.50;;;;;;6335315;22;20009;-77